Terminal Aerodrome Forecast
Issued by NWS

Home | Current Version | Previous Version | Text Only | Print | Product List | Glossary On
Versions: 1 2 3 4 5 6 7 8 9 10 11 12 13 14 15 16 17 18 19 20 21
792
FTUS41 KPBZ 111120
TAFBVI
TAF
KBVI 111120Z 1112/1212 29010G18KT P6SM BKN023 OVC030
      TEMPO 1112/1114 2SM -SHSN BKN016
     FM120000 28007KT P6SM SCT035=

USA.gov is the U.S. government's official web portal to all federal, state and local government web resources and services.